Terminal Aerodrome Forecast
Issued by NWS

Home | Current Version | Previous Version | Text Only | Print | Product List | Glossary On
Versions: 1 2 3 4 5 6 7 8 9 10 11 12
000
FTUS45 KRIW 220500
TAFCOD
TAF
KCOD 220539Z 2206/2306 29014G24KT P6SM FEW050 BKN110
     FM221000 28007KT P6SM VCSH SCT050 BKN100
     FM222100 33017G25KT P6SM VCSH BKN050 OVC100
     FM230400 27008KT P6SM SCT100
      AMD LTD TO CLD VIS AND WIND=

USA.gov is the U.S. government's official web portal to all federal, state and local government web resources and services.